METAR Data
IDs: Format: Raw Decoded Include TAF

Data at: 0209 UTC 24 Sep 2018

KYIP 240153Z 00000KT 10SM CLR 13/11 A3023 RMK AO2 SLP236 T01330111
KYIP 240053Z 05004KT 10SM CLR 13/11 A3021 RMK AO2 SLP228 T01330111
KYIP 232353Z 13004KT 10SM CLR 17/12 A3019 RMK AO2 SLP222 T01670122 10228 20167 53006
KYIP 232253Z 15007KT 10SM CLR 19/12 A3019 RMK AO2 SLP221 T01940122
KYIP 232153Z 08007KT 10SM CLR 22/10 A3018 RMK AO2 SLP216 T02220100
KYIP 232053Z 08007KT 10SM CLR 23/09 A3018 RMK AO2 SLP215 T02280094 56014
KYIP 231953Z VRB04KT 10SM CLR 22/09 A3018 RMK AO2 SLP217 T02220094
KYIP 231853Z AUTO 11007KT 10SM CLR 22/08 A3020 RMK AO2 SLP224 T02170083
KYIP 231753Z VRB03KT 10SM CLR 21/09 A3022 RMK AO2 SLP231 T02110094 10211 20083 58012
KYIP 231653Z 06005KT 10SM CLR 21/09 A3024 RMK AO2 SLP236 T02110089
KYIP 231553Z 07007KT 10SM CLR 19/09 A3024 RMK AO2 SLP239 T01940089
KYIP 231453Z 05008KT 10SM CLR 18/10 A3025 RMK AO2 SLP243 T01780100 51008
KYIP 231353Z 04008KT 10SM FEW028 16/11 A3025 RMK AO2 SLP243 T01560106
KYIP 231253Z 04005KT 10SM CLR 12/09 A3024 RMK AO2 SLP239 T01170089
KYIP 231153Z 04003KT 7SM CLR 08/06 A3023 RMK AO2 SLP235 T00830061 10083 20061 51005
KYIP 231053Z 04003KT 8SM CLR 07/06 A3023 RMK AO2 SLP235 T00720056
KYIP 230953Z 01004KT 8SM CLR 07/06 A3022 RMK AO2 SLP233 T00720061
KYIP 230853Z 02003KT 10SM CLR 08/06 A3021 RMK AO2 SLP230 T00780061 55007
KYIP 230753Z 03004KT 10SM CLR 07/05 A3021 RMK AO2 SLP229 T00670050
KYIP 230653Z 00000KT 3SM BR CLR 07/06 A3023 RMK AO2 SLP234 T00720056
KYIP 230553Z 00000KT 10SM CLR 08/07 A3023 RMK AO2 SLP238 60000 T00780067 10139 20072 56004
KYIP 230524Z 03003KT 10SM CLR 07/06 A3023 RMK AO2 T00720061
KYIP 230517Z 00000KT 1 1/2SM BR CLR 08/06 A3023 RMK AO2 VIS 1/2V5 T00780061
KYIP 230453Z 00000KT 10SM CLR 08/07 A3024 RMK AO2 SLP240 T00830067 401830083
KYIP 230400Z 00000KT 10SM CLR 09/08 A3024 RMK AO2 T00940078
KYIP 230353Z 00000KT 2SM CLR 09/07 A3024 RMK AO2 SLP238 T00890072
KYIP 230253Z 00000KT 10SM CLR 10/08 A3025 RMK AO2 SLP240 60000 T01000083 56000
KYIP 230153Z 00000KT 10SM CLR 10/08 A3025 RMK AO2 SLP242 T01000083
KYIP 230053Z 00000KT 10SM CLR 12/10 A3024 RMK AO2 RAE14 SLP239 P0000 T01220100
KYIP 222353Z 00000KT 10SM -RA CLR 14/09 A3025 RMK AO2 RAB52 SLP241 P0000 60000 T01390094 10183 20139 57004
KYIP 222253Z 14003KT 10SM CLR 17/09 A3025 RMK AO2 SLP241 T01670089
KYIP 222153Z 00000KT 10SM FEW042 17/08 A3026 RMK AO2 SLP245 T01720078
KYIP 222053Z 14003KT 10SM OVC042 17/08 A3026 RMK AO2 SLP245 T01720078 56021
KYIP 221953Z 13003KT 10SM OVC037 17/07 A3028 RMK AO2 SLP249 T01670072
KYIP 221853Z 07003KT 10SM SCT036 BKN043 18/08 A3030 RMK AO2 SLP257 T01780078
KYIP 221753Z VRB03KT 10SM OVC034 17/08 A3032 RMK AO2 SLP266 T01670078 10172 20122 56007
KYIP 221653Z 00000KT 10SM OVC033 16/08 A3033 RMK AO2 SLP266 T01610078
KYIP 221553Z 03008KT 10SM FEW030 16/08 A3033 RMK AO2 SLP269 T01610078
KYIP 221453Z 03009KT 10SM CLR 15/07 A3034 RMK AO2 SLP273 T01500072 51013